This is the latest recevied weather packets stored in our database for station/object W9PEM-13. If no packets are shown the sender has not sent any weather packets the latest 10 day(s).
| Time | Temp. | Humidity | Pressure | Rain* | Wind** | Luminosity | Snow |
|---|---|---|---|---|---|---|---|
| 1787436693 | 18.89° C | 83% | 1013.9 hPa | 5.33 mm | - | 469 W/m² | - |
| 1787436522 | 18.89° C | 83% | 1013.9 hPa | 5.33 mm | - | 469 W/m² | - |
| 1787436146 | 21.67° C | 78% | 1013.8 hPa | 0.51 mm | - | 103 W/m² | - |
| 1787435921 | 21.67° C | 78% | 1013.8 hPa | 0.51 mm | - | 103 W/m² | - |
| 1787435612 | 23.89° C | 58% | 1013.4 hPa | 0 mm | - | 80 W/m² | - |
| 1787435469 | 23.89° C | 56% | 1013.3 hPa | 0 mm | - | 162 W/m² | - |
| 1787435196 | 23.89° C | 56% | 1013.3 hPa | 0 mm | - | 162 W/m² | - |
| 1787434946 | 23.33° C | 64% | 1013.3 hPa | 0 mm | - | 564 W/m² | - |
| 1787434595 | 23.33° C | 64% | 1013.3 hPa | 0 mm | - | 564 W/m² | - |
| 1787434253 | 23.33° C | 61% | 1013.3 hPa | 0 mm | - | 121 W/m² | - |
| 1787433994 | 23.33° C | 61% | 1013.3 hPa | 0 mm | - | 121 W/m² | - |
| 1787433873 | 23.33° C | 59% | 1013.3 hPa | 0 mm | - | 406 W/m² | - |
| 1787433822 | 23.33° C | 59% | 1013.3 hPa | 0 mm | - | 406 W/m² | - |
| 1787433394 | 23.33° C | 59% | 1013.3 hPa | 0 mm | - | 406 W/m² | - |
| 1787433350 | 23.33° C | 60% | 1013.3 hPa | 0 mm | - | 99 W/m² | - |
| 1787432793 | 23.33° C | 60% | 1013.3 hPa | 0 mm | - | 99 W/m² | - |
| 1787432464 | 23.89° C | 57% | 1013.3 hPa | 0 mm | - | 183 W/m² | - |
| 1787432192 | 23.89° C | 57% | 1013.3 hPa | 0 mm | - | 183 W/m² | - |
| 1787431785 | 24.44° C | 58% | 1013.3 hPa | 0 mm | - | 205 W/m² | - |
| 1787431592 | 24.44° C | 58% | 1013.3 hPa | 0 mm | - | 205 W/m² | - |
| 1787431267 | 25° C | 58% | 1013.2 hPa | 0 mm | - | 156 W/m² | - |
| 1787430991 | 25° C | 58% | 1013.2 hPa | 0 mm | - | 156 W/m² | - |
| 1787430672 | 24.44° C | 55% | 1013.2 hPa | 0 mm | - | 719 W/m² | - |
| 1787430391 | 24.44° C | 55% | 1013.2 hPa | 0 mm | - | 719 W/m² | - |
| 1787430055 | 25.56° C | 54% | 1013.2 hPa | 0 mm | - | 305 W/m² | - |
* Rain latest hour (hover to see other rain measurements)
** Current wind speed in m/s (hover to see current wind gust speed)